FW4141 Weather Reports


Display with metric or nautical units.
time (UTC)temp
F
wind
direction
speed
MPH
gust
MPH
rain 1hr
in
rain 24hr
in
rain mn
in
humidity
%
barometer
mb
20240302160102 56 160 2.0 3.0 0.00 0.00 0.00 60 1001.1
20240302155139 56 146 2.0 4.0 0.00 0.00 0.00 60 1001.2
20240302154055 56 137 2.0 3.0 0.00 0.00 0.00 59 1001.2
20240302153112 56 142 1.0 2.0 0.00 0.00 0.00 58 1001.2
20240302152049 57 161 3.0 5.0 0.00 0.00 0.00 58 1001.2
20240302151045 57 123 2.0 4.0 0.00 0.00 0.00 57 1001.2
20240302150041 57 167 3.0 4.0 0.00 0.00 0.00 56 1001.2
20240302145037 58 172 2.0 4.0 0.00 0.00 0.00 55 1001.2
20240302144054 58 189 4.0 6.0 0.00 0.00 0.00 54 1001.3
20240302143031 58 185 2.0 4.0 0.00 0.00 0.00 54 1001.3
20240302142027 58 174 3.0 6.0 0.00 0.00 0.00 54 1001.4
20240302141023 58 131 5.0 8.0 0.00 0.00 0.00 53 1001.3
20240302140018 59 140 3.0 8.0 0.00 0.00 0.00 52 1001.3
20240302135114 59 165 3.0 5.0 0.00 0.00 0.00 51 1001.3
20240302134111 59 203 3.0 5.0 0.00 0.00 0.00 50 1001.2
20240302133108 59 171 3.0 7.0 0.00 0.00 0.00 50 1001.2
20240302132104 59 209 3.0 6.0 0.00 0.00 0.00 50 1001.2
20240302131100 59 169 3.0 5.0 0.00 0.00 0.00 50 1001.2
20240302130057 59 204 5.0 8.0 0.00 0.00 0.00 49 1001.2
20240302125053 59 193 4.0 8.0 0.00 0.00 0.00 50 1001.2
20240302124050 59 192 4.0 7.0 0.00 0.00 0.00 50 1001.3
20240302123046 59 219 5.0 10.0 0.00 0.00 0.00 50 1001.3
20240302122043 59 195 3.0 7.0 0.00 0.00 0.00 50 1001.3
20240302121038 59 124 3.0 7.0 0.00 0.00 0.00 50 1001.2
20240302120035 58 206 3.0 8.0 0.00 0.00 0.00 50 1001.2
20240302115111 59 248 6.0 10.0 0.00 0.00 0.00 49 1001.2
20240302114028 58 171 4.0 5.0 0.00 0.00 0.00 49 1001.2
20240302113124 59 214 6.0 12.0 0.00 0.00 0.00 48 1001.2
20240302112020 58 212 6.0 9.0 0.00 0.00 0.00 49 1001.4
20240302111017 58 210 5.0 8.0 0.00 0.00 0.00 49 1001.3
20240302110113 59 257 5.0 9.0 0.00 0.00 0.00 48 1001.4
20240302105110 60 201 5.0 8.0 0.00 0.00 0.00 48 1001.3
20240302104106 59 179 4.0 10.0 0.00 0.00 0.00 49 1001.3
20240302103103 60 241 5.0 8.0 0.00 0.00 0.00 48 1001.3
20240302102120 60 233 4.0 8.0 0.00 0.00 0.00 48 1001.4
20240302101056 60 215 4.0 8.0 0.00 0.00 0.00 48 1001.4
20240302100052 61 162 6.0 9.0 0.00 0.00 0.00 49 1001.4
20240302095108 60 210 5.0 8.0 0.00 0.00 0.00 52 1001.3
20240302094044 58 229 3.0 8.0 0.00 0.00 0.00 56 1001.2
20240302093041 57 182 3.0 4.0 0.00 0.00 0.00 61 1001.2
20240302092037 56 205 4.0 6.0 0.00 0.00 0.00 61 1001.2
20240302091054 55 180 5.0 8.0 0.00 0.00 0.00 64 1001.2
20240302090030 55 185 4.0 8.0 0.00 0.00 0.00 66 1001.1
20240302085027 54 131 4.0 5.0 0.00 0.00 0.00 71 1001.1
20240302084023 53 152 3.0 6.0 0.00 0.00 0.00 72 1001.1
20240302083020 52 149 4.0 8.0 0.00 0.00 0.00 73 1001.0
20240302082016 52 205 6.0 8.0 0.00 0.00 0.00 73 1001.0
20240302081113 52 180 5.0 8.0 0.00 0.00 0.00 74 1000.9
20240302080109 51 180 5.0 8.0 0.00 0.00 0.00 74 1000.9
20240302075106 51 168 4.0 8.0 0.00 0.00 0.00 75 1000.7
20240302074102 51 188 3.0 6.0 0.00 0.00 0.00 75 1000.6
20240302073058 51 190 5.0 8.0 0.00 0.00 0.00 76 1000.7
20240302072055 51 107 4.0 8.0 0.00 0.00 0.00 76 1000.6
20240302071051 51 184 6.0 9.0 0.00 0.00 0.00 77 1000.5
20240302070047 50 157 4.0 9.0 0.00 0.00 0.00 77 1000.4
20240302065044 50 187 4.0 6.0 0.00 0.00 0.00 78 1000.4
20240302064040 50 173 3.0 5.0 0.00 0.00 0.00 78 1000.5
20240302063036 50 160 4.0 7.0 0.00 0.00 0.00 78 1000.4
20240302062032 50 199 5.0 8.0 0.00 0.00 0.00 79 1000.4
20240302061059 50 182 3.0 6.0 0.00 0.00 0.00 78 1000.3
20240302060056 50 182 3.0 5.0 0.00 0.00 0.00 78 1000.2
20240302055112 50 164 4.0 8.0 0.00 0.00 0.00 79 1000.3
20240302054048 50 173 5.0 8.0 0.00 0.00 0.00 79 1000.2
20240302053045 50 156 6.0 8.0 0.00 0.00 0.00 79 1000.1
20240302052041 51 165 5.0 7.0 0.00 0.00 0.00 80 1000.0
20240302051038 51 179 4.0 7.0 0.00 0.00 0.00 80 999.9
20240302050034 51 173 6.0 9.0 0.00 0.00 0.00 80 999.9
20240302045030 50 187 7.0 11.0 0.00 0.00 0.00 80 999.8
20240302044027 50 143 6.0 11.0 0.00 0.00 0.00 80 999.6
20240302043024 50 164 6.0 8.0 0.00 0.00 0.00 80 999.4
20240302042020 51 142 6.0 11.0 0.00 0.00 0.00 80 999.3
20240302041016 51 147 4.0 8.0 0.00 0.00 0.00 80 999.3
20240302040113 51 164 4.0 6.0 0.00 0.00 0.00 79 999.4
20240302035129 51 164 5.0 8.0 0.00 0.00 0.00 79 999.4
20240302034126 51 200 5.0 9.0 0.00 0.00 0.00 79 999.5
20240302033123 51 165 6.0 9.0 0.00 0.00 0.00 79 999.4
20240302032059 51 178 5.0 13.0 0.00 0.00 0.00 79 999.5
20240302031116 51 180 6.0 11.0 0.00 0.00 0.00 80 999.5
20240302030052 51 141 5.0 8.0 0.00 0.00 0.00 80 999.5
20240302025109 51 176 4.0 6.0 0.00 0.00 0.00 80 999.6
20240302024045 51 154 4.0 7.0 0.00 0.00 0.00 80 999.6
20240302023041 51 187 6.0 10.0 0.00 0.00 0.00 80 999.6
20240302022038 51 152 5.0 8.0 0.00 0.00 0.00 80 999.5
20240302021034 51 170 5.0 7.0 0.00 0.00 0.00 80 999.5
20240302020031 51 164 4.0 5.0 0.00 0.00 0.00 80 999.7
20240302015027 51 196 5.0 8.0 0.00 0.00 0.00 79 999.7
20240302014044 51 167 6.0 11.0 0.00 0.00 0.00 79 999.9
20240302013020 51 181 5.0 11.0 0.00 0.00 0.00 79 1000.0
20240302012017 51 162 4.0 8.0 0.00 0.00 0.00 79 1000.0
20240302011111 51 190 6.0 10.0 0.00 0.00 0.00 79 1000.0
20240302010108 52 133 6.0 9.0 0.00 0.00 0.00 79 1000.0
20240302005145 52 201 6.0 9.0 0.00 0.00 0.00 80 999.9
20240302004101 51 160 6.0 10.0 0.00 0.00 0.00 80 1000.0
20240302003057 51 184 4.0 6.0 0.00 0.00 0.00 80 1000.1
20240302002054 52 180 3.0 5.0 0.00 0.00 0.00 80 1000.1
20240302001110 52 180 4.0 8.0 0.00 0.00 0.00 80 1000.2
20240302000107 51 180 5.0 8.0 0.00 0.00 0.00 80 1000.3
20240301235123 51 184 4.0 7.0 0.00 0.00 0.00 80 1000.4
20240301234040 51 177 4.0 6.0 0.00 0.00 0.00 80 1000.3
20240301233037 51 164 3.0 5.0 0.00 0.00 0.00 80 1000.4
20240301232053 51 173 4.0 5.0 0.00 0.00 0.00 80 1000.4
20240301231028 52 158 4.0 7.0 0.00 0.00 0.00 80 1000.5
20240301230025 52 128 5.0 8.0 0.00 0.00 0.00 81 1000.5
20240301225020 51 138 6.0 9.0 0.00 0.00 0.00 81 1000.5
20240301224016 51 142 4.0 8.0 0.00 0.00 0.00 81 1000.4
20240301223113 51 158 3.0 6.0 0.00 0.00 0.00 81 1000.4
20240301222110 51 134 3.0 6.0 0.00 0.00 0.00 80 1000.5
20240301221106 51 117 3.0 4.0 0.00 0.00 0.00 80 1000.6
20240301220102 51 100 2.0 3.0 0.00 0.00 0.00 80 1000.7
20240301215059 51 131 3.0 5.0 0.00 0.00 0.00 80 1000.8
20240301214056 51 105 2.0 2.0 0.00 0.00 0.00 79 1000.8
20240301213052 51 115 2.0 2.0 0.00 0.00 0.00 79 1000.8
20240301212108 51 142 2.0 4.0 0.00 0.00 0.00 78 1000.8
20240301211045 52 159 3.0 7.0 0.00 0.00 0.00 78 1000.8
20240301210041 52 182 3.0 5.0 0.00 0.00 0.00 77 1000.8
20240301205038 52 182 4.0 6.0 0.00 0.00 0.00 76 1000.8
20240301204034 52 167 3.0 5.0 0.00 0.00 0.00 75 1001.0
20240301203031 53 160 5.0 8.0 0.00 0.00 0.00 74 1000.9
20240301202028 53 184 4.0 8.0 0.00 0.00 0.00 73 1001.0
20240301201024 53 171 7.0 12.0 0.00 0.00 0.00 72 1001.0
20240301200020 54 180 6.0 10.0 0.00 0.00 0.00 70 1000.9
20240301195037 54 186 8.0 14.0 0.00 0.00 0.00 66 1000.9
20240301194113 55 195 7.0 11.0 0.00 0.00 0.00 63 1000.8
20240301193109 55 173 6.0 12.0 0.00 0.00 0.00 63 1000.7
20240301192106 54 184 6.0 9.0 0.00 0.00 0.00 69 1000.7
20240301191102 54 198 4.0 9.0 0.00 0.00 0.00 71 1000.7
20240301190059 54 136 3.0 5.0 0.00 0.00 0.00 71 1000.5
20240301185135 53 171 4.0 6.0 0.00 0.00 0.00 72 1000.6
20240301184112 53 150 3.0 7.0 0.00 0.00 0.00 71 1000.6
20240301183049 53 126 1.0 2.0 0.00 0.00 0.00 71 1000.6
20240301182045 53 117 2.0 4.0 0.00 0.00 0.00 70 1000.5
20240301181041 53 104 2.0 3.0 0.00 0.00 0.00 70 1000.5
20240301180037 53 104 1.0 2.0 0.00 0.00 0.00 70 1000.5
20240301175034 53 127 1.0 2.0 0.00 0.00 0.00 69 1000.4
20240301174031 53 123 2.0 3.0 0.00 0.00 0.00 70 1000.5
20240301173027 53 140 1.0 2.0 0.00 0.00 0.00 70 1000.4
20240301172023 53 90 1.0 2.0 0.00 0.00 0.00 70 1000.4
20240301171040 53 117 1.0 2.0 0.00 0.00 0.00 70 1000.4
20240301170016 53 103 1.0 3.0 0.00 0.00 0.00 70 1000.4
20240301165113 53 125 1.0 2.0 0.00 0.00 0.00 70 1000.4
20240301164149 54 117 1.0 2.0 0.00 0.00 0.00 69 1000.3
20240301163106 54 73 1.0 2.0 0.00 0.00 0.00 69 1000.3
20240301162102 55 111 1.0 2.0 0.00 0.00 0.00 64 1000.1
20240301161059 55 90 1.0 3.0 0.00 0.00 0.00 64 1000.1